Big Glory — H9IF — position and weather

sailwx.info

Track history (hours):
 
Tides and Currents Weather Stations Pressure Air Temp Water Temp Dewpoint Dewpoint Depression Visibility Wind Speed Wind Dir Waves Ship Positions

Big Glory

Last reported at 2014-Oct-09 10:32 UTC. Time now 2014-Oct-21 07:16 UTC.
Position N 22°16' E 120°04'.
Warning: this ship's position is 11 days out of date.

Length 190 m; draft 6.4 m.

Type: Cargo ship. MMSI: 354285000.

Date/timePositionNaut miles runAvg speedWind from/ knotsBaromVisibWave heightAir tempDewpointWater temp
2014-Oct-09 10:32N 22°16' E 120°04'1313.4
2014-Oct-09 09:33N 22°28' E 119°59'1414.2
2014-Oct-09 08:33N 22°42' E 119°56'1414.0
2014-Oct-09 07:33N 22°56' E 119°54'  
2014-Oct-03 06:33N 22°55' E 119°55'1212.2
2014-Oct-03 05:33N 22°43' E 119°56'1211.9
2014-Oct-03 04:33N 22°31' E 119°59'1111.2
2014-Oct-03 03:33N 22°21' E 120°02'1111.0
2014-Oct-03 02:33N 22°11' E 120°07'  
Track history (hours):
 
Tides and Currents Weather Stations Pressure Air Temp Water Temp Dewpoint Dewpoint Depression Visibility Wind Speed Wind Dir Waves Ship Positions

Big Glory

Last reported at 2014-Oct-09 10:32 UTC. Time now 2014-Oct-21 07:16 UTC.
Position N 22°16' E 120°04'.
Warning: this ship's position is 11 days out of date.

Length 190 m; draft 6.4 m.

Type: Cargo ship. MMSI: 354285000.

Date/timePositionNaut miles runAvg speedWind from/ knotsBaromVisibWave heightAir tempDewpointWater temp
2014-Oct-09 10:32N 22°16' E 120°04'1313.4
2014-Oct-09 09:33N 22°28' E 119°59'1414.2
2014-Oct-09 08:33N 22°42' E 119°56'1414.0
2014-Oct-09 07:33N 22°56' E 119°54'  
2014-Oct-03 06:33N 22°55' E 119°55'1212.2
2014-Oct-03 05:33N 22°43' E 119°56'1211.9
2014-Oct-03 04:33N 22°31' E 119°59'1111.2
2014-Oct-03 03:33N 22°21' E 120°02'1111.0
2014-Oct-03 02:33N 22°11' E 120°07'  

Dump ship's entire track history